sensor_id;sensor_type;location;lat;lon;timestamp;P1;durP1;ratioP1;P2;durP2;ratioP2
13566;SDS011;6855;48.112;11.298;2023-09-07T00:00:34;6.87;;;3.80;;
13566;SDS011;6855;48.112;11.298;2023-09-07T00:03:01;3.90;;;3.37;;
13566;SDS011;6855;48.112;11.298;2023-09-07T00:05:29;9.33;;;3.87;;
13566;SDS011;6855;48.112;11.298;2023-09-07T00:07:56;4.90;;;3.57;;
13566;SDS011;6855;48.112;11.298;2023-09-07T00:10:24;6.47;;;3.87;;
13566;SDS011;6855;48.112;11.298;2023-09-07T00:12:52;5.00;;;3.70;;
13566;SDS011;6855;48.112;11.298;2023-09-07T00:15:19;5.60;;;3.53;;
13566;SDS011;6855;48.112;11.298;2023-09-07T00:17:47;6.10;;;3.67;;
13566;SDS011;6855;48.112;11.298;2023-09-07T00:20:16;4.13;;;3.50;;
13566;SDS011;6855;48.112;11.298;2023-09-07T00:22:44;5.53;;;3.53;;
13566;SDS011;6855;48.112;11.298;2023-09-07T00:25:11;4.90;;;3.60;;
13566;SDS011;6855;48.112;11.298;2023-09-07T00:27:38;5.97;;;3.87;;
13566;SDS011;6855;48.112;11.298;2023-09-07T00:30:07;4.20;;;3.37;;
13566;SDS011;6855;48.112;11.298;2023-09-07T00:32:35;8.83;;;3.77;;
13566;SDS011;6855;48.112;11.298;2023-09-07T00:35:03;6.43;;;3.70;;
13566;SDS011;6855;48.112;11.298;2023-09-07T00:37:30;5.20;;;3.53;;
13566;SDS011;6855;48.112;11.298;2023-09-07T00:39:57;9.80;;;3.67;;
13566;SDS011;6855;48.112;11.298;2023-09-07T00:42:24;4.97;;;3.03;;
13566;SDS011;6855;48.112;11.298;2023-09-07T00:44:52;5.07;;;3.20;;
13566;SDS011;6855;48.112;11.298;2023-09-07T00:47:20;5.70;;;4.00;;
13566;SDS011;6855;48.112;11.298;2023-09-07T00:49:48;5.73;;;3.80;;
13566;SDS011;6855;48.112;11.298;2023-09-07T00:52:16;5.90;;;4.07;;
13566;SDS011;6855;48.112;11.298;2023-09-07T00:54:43;5.43;;;3.50;;
13566;SDS011;6855;48.112;11.298;2023-09-07T00:57:10;8.90;;;4.03;;
13566;SDS011;6855;48.112;11.298;2023-09-07T00:59:37;11.20;;;3.30;;
13566;SDS011;6855;48.112;11.298;2023-09-07T01:02:04;6.80;;;4.30;;
13566;SDS011;6855;48.112;11.298;2023-09-07T01:04:33;5.70;;;4.20;;
13566;SDS011;6855;48.112;11.298;2023-09-07T01:07:02;6.93;;;3.50;;
13566;SDS011;6855;48.112;11.298;2023-09-07T01:09:30;5.17;;;3.70;;
13566;SDS011;6855;48.112;11.298;2023-09-07T01:11:58;3.47;;;3.17;;
13566;SDS011;6855;48.112;11.298;2023-09-07T01:14:25;4.70;;;4.07;;
13566;SDS011;6855;48.112;11.298;2023-09-07T01:16:53;5.03;;;3.67;;
13566;SDS011;6855;48.112;11.298;2023-09-07T01:19:20;6.97;;;3.57;;
13566;SDS011;6855;48.112;11.298;2023-09-07T01:21:49;6.70;;;3.60;;
13566;SDS011;6855;48.112;11.298;2023-09-07T01:24:16;7.83;;;3.50;;
13566;SDS011;6855;48.112;11.298;2023-09-07T01:26:44;3.73;;;3.40;;
13566;SDS011;6855;48.112;11.298;2023-09-07T01:29:14;6.53;;;4.60;;
13566;SDS011;6855;48.112;11.298;2023-09-07T01:31:42;5.87;;;3.63;;
13566;SDS011;6855;48.112;11.298;2023-09-07T01:34:09;8.30;;;4.20;;
13566;SDS011;6855;48.112;11.298;2023-09-07T01:36:37;4.20;;;3.77;;
13566;SDS011;6855;48.112;11.298;2023-09-07T01:39:05;4.13;;;3.60;;
13566;SDS011;6855;48.112;11.298;2023-09-07T01:41:32;4.80;;;3.50;;
13566;SDS011;6855;48.112;11.298;2023-09-07T01:43:59;6.00;;;3.37;;
13566;SDS011;6855;48.112;11.298;2023-09-07T01:46:27;4.83;;;4.20;;
13566;SDS011;6855;48.112;11.298;2023-09-07T01:48:54;7.60;;;3.90;;
13566;SDS011;6855;48.112;11.298;2023-09-07T01:51:21;4.50;;;3.70;;
13566;SDS011;6855;48.112;11.298;2023-09-07T01:53:48;4.57;;;3.37;;
13566;SDS011;6855;48.112;11.298;2023-09-07T01:56:17;3.87;;;3.57;;
13566;SDS011;6855;48.112;11.298;2023-09-07T01:58:44;4.70;;;3.80;;
13566;SDS011;6855;48.112;11.298;2023-09-07T02:01:20;8.60;;;3.60;;
13566;SDS011;6855;48.112;11.298;2023-09-07T02:03:47;4.77;;;4.20;;
13566;SDS011;6855;48.112;11.298;2023-09-07T02:06:14;7.03;;;3.70;;
13566;SDS011;6855;48.112;11.298;2023-09-07T02:08:41;7.80;;;3.80;;
13566;SDS011;6855;48.112;11.298;2023-09-07T02:11:09;4.53;;;3.33;;
13566;SDS011;6855;48.112;11.298;2023-09-07T02:13:37;5.30;;;4.40;;
13566;SDS011;6855;48.112;11.298;2023-09-07T02:16:04;6.10;;;4.50;;
13566;SDS011;6855;48.112;11.298;2023-09-07T02:18:32;4.47;;;3.57;;
13566;SDS011;6855;48.112;11.298;2023-09-07T02:21:02;4.73;;;3.67;;
13566;SDS011;6855;48.112;11.298;2023-09-07T02:23:30;8.03;;;3.97;;
13566;SDS011;6855;48.112;11.298;2023-09-07T02:25:57;10.00;;;4.30;;
13566;SDS011;6855;48.112;11.298;2023-09-07T02:28:24;5.43;;;3.73;;
13566;SDS011;6855;48.112;11.298;2023-09-07T02:30:53;4.47;;;3.70;;
13566;SDS011;6855;48.112;11.298;2023-09-07T02:33:20;5.13;;;4.37;;
13566;SDS011;6855;48.112;11.298;2023-09-07T02:35:47;5.17;;;3.73;;
13566;SDS011;6855;48.112;11.298;2023-09-07T02:38:15;4.40;;;3.80;;
13566;SDS011;6855;48.112;11.298;2023-09-07T02:40:42;5.80;;;4.30;;
13566;SDS011;6855;48.112;11.298;2023-09-07T02:43:10;7.97;;;3.90;;
13566;SDS011;6855;48.112;11.298;2023-09-07T02:45:37;8.70;;;3.83;;
13566;SDS011;6855;48.112;11.298;2023-09-07T02:48:06;4.87;;;4.40;;
13566;SDS011;6855;48.112;11.298;2023-09-07T02:50:34;7.80;;;4.60;;
13566;SDS011;6855;48.112;11.298;2023-09-07T02:53:01;4.80;;;4.20;;
13566;SDS011;6855;48.112;11.298;2023-09-07T02:55:29;10.03;;;4.50;;
13566;SDS011;6855;48.112;11.298;2023-09-07T02:57:56;6.17;;;4.83;;
13566;SDS011;6855;48.112;11.298;2023-09-07T03:00:24;9.30;;;4.73;;
13566;SDS011;6855;48.112;11.298;2023-09-07T03:02:52;8.53;;;5.13;;
13566;SDS011;6855;48.112;11.298;2023-09-07T03:05:20;5.97;;;4.90;;
13566;SDS011;6855;48.112;11.298;2023-09-07T03:07:47;5.27;;;4.10;;
13566;SDS011;6855;48.112;11.298;2023-09-07T03:10:15;5.63;;;4.43;;
13566;SDS011;6855;48.112;11.298;2023-09-07T03:12:42;6.47;;;3.70;;
13566;SDS011;6855;48.112;11.298;2023-09-07T03:15:09;5.73;;;4.23;;
13566;SDS011;6855;48.112;11.298;2023-09-07T03:17:37;6.87;;;4.10;;
13566;SDS011;6855;48.112;11.298;2023-09-07T03:20:05;7.70;;;4.33;;
13566;SDS011;6855;48.112;11.298;2023-09-07T03:22:40;6.73;;;4.00;;
13566;SDS011;6855;48.112;11.298;2023-09-07T03:25:07;6.20;;;4.90;;
13566;SDS011;6855;48.112;11.298;2023-09-07T03:27:35;4.80;;;4.23;;
13566;SDS011;6855;48.112;11.298;2023-09-07T03:30:03;5.87;;;4.30;;
13566;SDS011;6855;48.112;11.298;2023-09-07T03:32:30;5.47;;;4.30;;
13566;SDS011;6855;48.112;11.298;2023-09-07T03:34:58;5.97;;;4.50;;
13566;SDS011;6855;48.112;11.298;2023-09-07T03:37:25;7.10;;;3.93;;
13566;SDS011;6855;48.112;11.298;2023-09-07T03:39:54;5.50;;;4.17;;
13566;SDS011;6855;48.112;11.298;2023-09-07T03:42:22;6.83;;;4.07;;
13566;SDS011;6855;48.112;11.298;2023-09-07T03:44:49;8.63;;;4.07;;
13566;SDS011;6855;48.112;11.298;2023-09-07T03:47:16;4.37;;;3.87;;
13566;SDS011;6855;48.112;11.298;2023-09-07T03:49:44;7.17;;;4.57;;
13566;SDS011;6855;48.112;11.298;2023-09-07T03:52:11;4.80;;;4.07;;
13566;SDS011;6855;48.112;11.298;2023-09-07T03:54:38;10.33;;;4.70;;
13566;SDS011;6855;48.112;11.298;2023-09-07T03:57:07;4.60;;;4.20;;
13566;SDS011;6855;48.112;11.298;2023-09-07T03:59:34;5.20;;;4.17;;
13566;SDS011;6855;48.112;11.298;2023-09-07T04:02:01;6.97;;;4.10;;
13566;SDS011;6855;48.112;11.298;2023-09-07T04:04:28;9.80;;;4.53;;
13566;SDS011;6855;48.112;11.298;2023-09-07T04:06:55;5.10;;;3.97;;
13566;SDS011;6855;48.112;11.298;2023-09-07T04:09:22;6.73;;;3.77;;
13566;SDS011;6855;48.112;11.298;2023-09-07T04:11:49;5.03;;;4.30;;
13566;SDS011;6855;48.112;11.298;2023-09-07T04:14:18;4.80;;;4.10;;
13566;SDS011;6855;48.112;11.298;2023-09-07T04:16:45;4.90;;;4.40;;
13566;SDS011;6855;48.112;11.298;2023-09-07T04:19:12;4.80;;;4.00;;
13566;SDS011;6855;48.112;11.298;2023-09-07T04:21:39;9.57;;;4.50;;
13566;SDS011;6855;48.112;11.298;2023-09-07T04:24:07;8.83;;;4.50;;
13566;SDS011;6855;48.112;11.298;2023-09-07T04:26:34;7.37;;;4.90;;
13566;SDS011;6855;48.112;11.298;2023-09-07T04:29:01;4.70;;;3.77;;
13566;SDS011;6855;48.112;11.298;2023-09-07T04:31:30;5.97;;;4.80;;
13566;SDS011;6855;48.112;11.298;2023-09-07T04:33:57;7.60;;;4.00;;
13566;SDS011;6855;48.112;11.298;2023-09-07T04:36:25;4.93;;;4.30;;
13566;SDS011;6855;48.112;11.298;2023-09-07T04:38:52;5.50;;;4.50;;
13566;SDS011;6855;48.112;11.298;2023-09-07T04:41:19;6.23;;;4.37;;
13566;SDS011;6855;48.112;11.298;2023-09-07T04:43:46;5.30;;;3.90;;
13566;SDS011;6855;48.112;11.298;2023-09-07T04:46:13;7.43;;;4.73;;
13566;SDS011;6855;48.112;11.298;2023-09-07T04:48:42;4.67;;;4.13;;
13566;SDS011;6855;48.112;11.298;2023-09-07T04:51:09;6.13;;;4.83;;
13566;SDS011;6855;48.112;11.298;2023-09-07T04:53:37;6.10;;;4.87;;
13566;SDS011;6855;48.112;11.298;2023-09-07T04:56:06;6.20;;;4.13;;
13566;SDS011;6855;48.112;11.298;2023-09-07T04:58:33;5.13;;;4.63;;
13566;SDS011;6855;48.112;11.298;2023-09-07T05:01:01;8.20;;;4.40;;
13566;SDS011;6855;48.112;11.298;2023-09-07T05:03:29;8.50;;;4.40;;
13566;SDS011;6855;48.112;11.298;2023-09-07T05:05:57;5.53;;;4.82;;
13566;SDS011;6855;48.112;11.298;2023-09-07T05:08:24;5.70;;;4.80;;
13566;SDS011;6855;48.112;11.298;2023-09-07T05:10:54;5.47;;;3.90;;
13566;SDS011;6855;48.112;11.298;2023-09-07T05:13:22;5.77;;;4.20;;
13566;SDS011;6855;48.112;11.298;2023-09-07T05:15:50;6.70;;;4.40;;
13566;SDS011;6855;48.112;11.298;2023-09-07T05:18:17;7.77;;;5.07;;
13566;SDS011;6855;48.112;11.298;2023-09-07T05:20:44;4.77;;;3.93;;
13566;SDS011;6855;48.112;11.298;2023-09-07T05:23:14;7.90;;;4.70;;
13566;SDS011;6855;48.112;11.298;2023-09-07T05:25:43;5.43;;;4.70;;
13566;SDS011;6855;48.112;11.298;2023-09-07T05:28:12;7.90;;;4.33;;
13566;SDS011;6855;48.112;11.298;2023-09-07T05:30:39;6.90;;;4.80;;
13566;SDS011;6855;48.112;11.298;2023-09-07T05:33:06;7.97;;;5.13;;
13566;SDS011;6855;48.112;11.298;2023-09-07T05:35:34;4.60;;;4.10;;
13566;SDS011;6855;48.112;11.298;2023-09-07T05:38:01;13.43;;;4.80;;
13566;SDS011;6855;48.112;11.298;2023-09-07T05:40:30;6.27;;;4.97;;
13566;SDS011;6855;48.112;11.298;2023-09-07T05:43:00;7.20;;;4.30;;
13566;SDS011;6855;48.112;11.298;2023-09-07T05:45:29;6.83;;;4.27;;
13566;SDS011;6855;48.112;11.298;2023-09-07T05:47:56;7.83;;;4.73;;
13566;SDS011;6855;48.112;11.298;2023-09-07T05:50:23;14.40;;;5.80;;
13566;SDS011;6855;48.112;11.298;2023-09-07T05:52:50;27.30;;;6.60;;
13566;SDS011;6855;48.112;11.298;2023-09-07T05:55:18;5.60;;;4.80;;
13566;SDS011;6855;48.112;11.298;2023-09-07T05:57:46;7.87;;;4.30;;
13566;SDS011;6855;48.112;11.298;2023-09-07T06:00:14;5.57;;;4.03;;
13566;SDS011;6855;48.112;11.298;2023-09-07T06:02:42;11.87;;;4.90;;
13566;SDS011;6855;48.112;11.298;2023-09-07T06:05:09;6.50;;;4.70;;
13566;SDS011;6855;48.112;11.298;2023-09-07T06:07:37;7.60;;;5.20;;
13566;SDS011;6855;48.112;11.298;2023-09-07T06:10:04;5.40;;;4.57;;
13566;SDS011;6855;48.112;11.298;2023-09-07T06:12:32;13.93;;;5.70;;
13566;SDS011;6855;48.112;11.298;2023-09-07T06:15:00;7.57;;;4.60;;
13566;SDS011;6855;48.112;11.298;2023-09-07T06:17:28;10.10;;;6.03;;
13566;SDS011;6855;48.112;11.298;2023-09-07T06:19:56;11.67;;;4.97;;
13566;SDS011;6855;48.112;11.298;2023-09-07T06:22:24;6.67;;;5.07;;
13566;SDS011;6855;48.112;11.298;2023-09-07T06:24:51;7.27;;;4.90;;
13566;SDS011;6855;48.112;11.298;2023-09-07T06:27:18;11.43;;;5.33;;
13566;SDS011;6855;48.112;11.298;2023-09-07T06:29:45;6.40;;;4.80;;
13566;SDS011;6855;48.112;11.298;2023-09-07T06:32:14;7.47;;;4.73;;
13566;SDS011;6855;48.112;11.298;2023-09-07T06:34:41;7.40;;;5.57;;
13566;SDS011;6855;48.112;11.298;2023-09-07T06:37:07;10.93;;;4.60;;
13566;SDS011;6855;48.112;11.298;2023-09-07T06:39:34;6.70;;;4.43;;
13566;SDS011;6855;48.112;11.298;2023-09-07T06:42:02;4.27;;;3.57;;
13566;SDS011;6855;48.112;11.298;2023-09-07T06:44:29;5.30;;;4.03;;
13566;SDS011;6855;48.112;11.298;2023-09-07T06:46:56;4.80;;;3.73;;
13566;SDS011;6855;48.112;11.298;2023-09-07T06:49:25;4.43;;;3.60;;
13566;SDS011;6855;48.112;11.298;2023-09-07T06:51:54;5.07;;;4.57;;
13566;SDS011;6855;48.112;11.298;2023-09-07T06:54:21;8.30;;;4.63;;
13566;SDS011;6855;48.112;11.298;2023-09-07T06:56:48;8.70;;;4.97;;
13566;SDS011;6855;48.112;11.298;2023-09-07T06:59:16;5.33;;;4.57;;
13566;SDS011;6855;48.112;11.298;2023-09-07T07:01:43;6.30;;;5.70;;
13566;SDS011;6855;48.112;11.298;2023-09-07T07:04:10;5.37;;;4.90;;
13566;SDS011;6855;48.112;11.298;2023-09-07T07:06:38;5.10;;;4.60;;
13566;SDS011;6855;48.112;11.298;2023-09-07T07:09:06;7.37;;;5.20;;
13566;SDS011;6855;48.112;11.298;2023-09-07T07:11:34;5.57;;;5.07;;
13566;SDS011;6855;48.112;11.298;2023-09-07T07:14:02;5.50;;;5.00;;
13566;SDS011;6855;48.112;11.298;2023-09-07T07:16:29;7.77;;;5.27;;
13566;SDS011;6855;48.112;11.298;2023-09-07T07:18:56;6.43;;;5.47;;
13566;SDS011;6855;48.112;11.298;2023-09-07T07:21:23;5.33;;;4.83;;
13566;SDS011;6855;48.112;11.298;2023-09-07T07:23:52;5.20;;;4.80;;
13566;SDS011;6855;48.112;11.298;2023-09-07T07:26:19;5.90;;;5.07;;
13566;SDS011;6855;48.112;11.298;2023-09-07T07:28:46;7.00;;;4.90;;
13566;SDS011;6855;48.112;11.298;2023-09-07T07:31:13;8.97;;;5.63;;
13566;SDS011;6855;48.112;11.298;2023-09-07T07:33:41;6.63;;;5.63;;
13566;SDS011;6855;48.112;11.298;2023-09-07T07:36:08;6.30;;;5.67;;
13566;SDS011;6855;48.112;11.298;2023-09-07T07:38:35;5.57;;;4.97;;
13566;SDS011;6855;48.112;11.298;2023-09-07T07:41:04;5.17;;;4.67;;
13566;SDS011;6855;48.112;11.298;2023-09-07T07:43:32;5.70;;;4.43;;
13566;SDS011;6855;48.112;11.298;2023-09-07T07:45:59;5.20;;;4.70;;
13566;SDS011;6855;48.112;11.298;2023-09-07T07:48:26;5.33;;;4.73;;
13566;SDS011;6855;48.112;11.298;2023-09-07T07:50:54;5.30;;;4.80;;
13566;SDS011;6855;48.112;11.298;2023-09-07T07:53:21;5.70;;;4.47;;
13566;SDS011;6855;48.112;11.298;2023-09-07T07:55:49;7.47;;;5.37;;
13566;SDS011;6855;48.112;11.298;2023-09-07T07:58:17;5.60;;;5.00;;
13566;SDS011;6855;48.112;11.298;2023-09-07T08:00:44;5.03;;;4.57;;
13566;SDS011;6855;48.112;11.298;2023-09-07T08:03:13;6.90;;;4.90;;
13566;SDS011;6855;48.112;11.298;2023-09-07T08:05:40;7.63;;;5.40;;
13566;SDS011;6855;48.112;11.298;2023-09-07T08:08:08;5.97;;;5.40;;
13566;SDS011;6855;48.112;11.298;2023-09-07T08:10:35;6.03;;;5.10;;
13566;SDS011;6855;48.112;11.298;2023-09-07T08:13:02;6.73;;;6.13;;
13566;SDS011;6855;48.112;11.298;2023-09-07T08:15:32;5.90;;;5.33;;
13566;SDS011;6855;48.112;11.298;2023-09-07T08:18:00;7.63;;;5.53;;
13566;SDS011;6855;48.112;11.298;2023-09-07T08:20:27;6.47;;;5.87;;
13566;SDS011;6855;48.112;11.298;2023-09-07T08:22:55;6.70;;;5.37;;
13566;SDS011;6855;48.112;11.298;2023-09-07T08:25:23;6.57;;;5.90;;
13566;SDS011;6855;48.112;11.298;2023-09-07T08:27:51;6.73;;;5.80;;
13566;SDS011;6855;48.112;11.298;2023-09-07T08:30:21;7.33;;;5.60;;
13566;SDS011;6855;48.112;11.298;2023-09-07T08:32:51;6.67;;;6.07;;
13566;SDS011;6855;48.112;11.298;2023-09-07T08:35:18;7.90;;;5.80;;
13566;SDS011;6855;48.112;11.298;2023-09-07T08:37:45;6.13;;;5.63;;
13566;SDS011;6855;48.112;11.298;2023-09-07T08:42:43;9.23;;;6.77;;
13566;SDS011;6855;48.112;11.298;2023-09-07T08:45:10;7.77;;;6.27;;
13566;SDS011;6855;48.112;11.298;2023-09-07T08:47:40;8.47;;;7.13;;
13566;SDS011;6855;48.112;11.298;2023-09-07T08:50:08;7.20;;;6.53;;
13566;SDS011;6855;48.112;11.298;2023-09-07T08:52:35;7.40;;;6.70;;
13566;SDS011;6855;48.112;11.298;2023-09-07T08:55:03;7.57;;;6.80;;
13566;SDS011;6855;48.112;11.298;2023-09-07T08:57:31;8.93;;;6.50;;
13566;SDS011;6855;48.112;11.298;2023-09-07T08:59:59;8.23;;;6.80;;
13566;SDS011;6855;48.112;11.298;2023-09-07T09:02:32;7.67;;;5.50;;
13566;SDS011;6855;48.112;11.298;2023-09-07T09:05:01;10.23;;;6.37;;
13566;SDS011;6855;48.112;11.298;2023-09-07T09:07:29;8.40;;;5.50;;
13566;SDS011;6855;48.112;11.298;2023-09-07T09:10:02;8.17;;;4.93;;
13566;SDS011;6855;48.112;11.298;2023-09-07T09:12:30;6.90;;;5.57;;
13566;SDS011;6855;48.112;11.298;2023-09-07T09:14:58;7.40;;;4.97;;
13566;SDS011;6855;48.112;11.298;2023-09-07T09:17:26;6.50;;;5.27;;
13566;SDS011;6855;48.112;11.298;2023-09-07T09:19:54;7.50;;;5.17;;
13566;SDS011;6855;48.112;11.298;2023-09-07T09:22:21;6.60;;;6.10;;
13566;SDS011;6855;48.112;11.298;2023-09-07T09:24:50;8.43;;;5.40;;
13566;SDS011;6855;48.112;11.298;2023-09-07T09:27:17;7.07;;;5.40;;
13566;SDS011;6855;48.112;11.298;2023-09-07T09:29:44;6.50;;;5.50;;
13566;SDS011;6855;48.112;11.298;2023-09-07T09:32:13;9.00;;;7.57;;
13566;SDS011;6855;48.112;11.298;2023-09-07T09:34:43;6.27;;;5.67;;
13566;SDS011;6855;48.112;11.298;2023-09-07T09:37:14;8.43;;;6.37;;
13566;SDS011;6855;48.112;11.298;2023-09-07T09:39:44;6.10;;;5.50;;
13566;SDS011;6855;48.112;11.298;2023-09-07T09:42:16;11.27;;;6.57;;
13566;SDS011;6855;48.112;11.298;2023-09-07T09:44:43;7.90;;;6.10;;
13566;SDS011;6855;48.112;11.298;2023-09-07T09:47:11;8.67;;;5.87;;
13566;SDS011;6855;48.112;11.298;2023-09-07T09:49:39;7.73;;;5.83;;
13566;SDS011;6855;48.112;11.298;2023-09-07T09:52:09;12.33;;;6.13;;
13566;SDS011;6855;48.112;11.298;2023-09-07T09:54:37;6.70;;;5.43;;
13566;SDS011;6855;48.112;11.298;2023-09-07T09:57:05;9.63;;;5.93;;
13566;SDS011;6855;48.112;11.298;2023-09-07T09:59:32;9.63;;;6.07;;
13566;SDS011;6855;48.112;11.298;2023-09-07T10:01:59;7.40;;;5.93;;
13566;SDS011;6855;48.112;11.298;2023-09-07T10:04:27;5.63;;;5.10;;
13566;SDS011;6855;48.112;11.298;2023-09-07T10:06:55;5.73;;;5.20;;
13566;SDS011;6855;48.112;11.298;2023-09-07T10:09:28;5.77;;;5.13;;
13566;SDS011;6855;48.112;11.298;2023-09-07T10:11:57;8.10;;;6.07;;
13566;SDS011;6855;48.112;11.298;2023-09-07T10:14:24;7.97;;;5.60;;
13566;SDS011;6855;48.112;11.298;2023-09-07T10:16:52;10.17;;;5.37;;
13566;SDS011;6855;48.112;11.298;2023-09-07T10:19:24;8.07;;;5.43;;
13566;SDS011;6855;48.112;11.298;2023-09-07T10:21:53;6.10;;;5.60;;
13566;SDS011;6855;48.112;11.298;2023-09-07T10:24:26;9.10;;;5.67;;
13566;SDS011;6855;48.112;11.298;2023-09-07T10:26:57;8.63;;;6.33;;
13566;SDS011;6855;48.112;11.298;2023-09-07T10:29:24;7.00;;;5.70;;
13566;SDS011;6855;48.112;11.298;2023-09-07T10:31:52;6.53;;;5.03;;
13566;SDS011;6855;48.112;11.298;2023-09-07T10:34:20;10.00;;;6.33;;
13566;SDS011;6855;48.112;11.298;2023-09-07T10:36:55;10.80;;;5.90;;
13566;SDS011;6855;48.112;11.298;2023-09-07T10:39:22;6.40;;;5.40;;
13566;SDS011;6855;48.112;11.298;2023-09-07T10:41:51;10.60;;;6.63;;
13566;SDS011;6855;48.112;11.298;2023-09-07T10:44:24;6.63;;;5.90;;
13566;SDS011;6855;48.112;11.298;2023-09-07T10:46:52;6.43;;;5.13;;
13566;SDS011;6855;48.112;11.298;2023-09-07T10:49:19;5.80;;;5.30;;
13566;SDS011;6855;48.112;11.298;2023-09-07T10:51:46;10.87;;;5.40;;
13566;SDS011;6855;48.112;11.298;2023-09-07T10:54:14;8.10;;;5.40;;
13566;SDS011;6855;48.112;11.298;2023-09-07T10:56:42;5.70;;;5.20;;
13566;SDS011;6855;48.112;11.298;2023-09-07T10:59:11;7.20;;;6.00;;
13566;SDS011;6855;48.112;11.298;2023-09-07T11:01:39;11.53;;;5.30;;
13566;SDS011;6855;48.112;11.298;2023-09-07T11:04:06;13.27;;;6.40;;
13566;SDS011;6855;48.112;11.298;2023-09-07T11:06:36;7.90;;;5.83;;
13566;SDS011;6855;48.112;11.298;2023-09-07T11:09:03;16.27;;;6.13;;
13566;SDS011;6855;48.112;11.298;2023-09-07T11:11:34;7.37;;;5.70;;
13566;SDS011;6855;48.112;11.298;2023-09-07T11:14:01;9.50;;;5.93;;
13566;SDS011;6855;48.112;11.298;2023-09-07T11:16:31;8.03;;;6.00;;
13566;SDS011;6855;48.112;11.298;2023-09-07T11:19:00;7.27;;;5.37;;
13566;SDS011;6855;48.112;11.298;2023-09-07T11:21:29;8.20;;;5.43;;
13566;SDS011;6855;48.112;11.298;2023-09-07T11:23:57;11.80;;;5.40;;
13566;SDS011;6855;48.112;11.298;2023-09-07T11:26:25;7.87;;;6.00;;
13566;SDS011;6855;48.112;11.298;2023-09-07T11:28:52;6.60;;;4.90;;
13566;SDS011;6855;48.112;11.298;2023-09-07T11:31:20;6.27;;;4.97;;
13566;SDS011;6855;48.112;11.298;2023-09-07T11:33:49;6.00;;;4.97;;
13566;SDS011;6855;48.112;11.298;2023-09-07T11:36:16;5.20;;;4.70;;
13566;SDS011;6855;48.112;11.298;2023-09-07T11:38:43;6.50;;;5.20;;
13566;SDS011;6855;48.112;11.298;2023-09-07T11:41:11;7.97;;;5.73;;
13566;SDS011;6855;48.112;11.298;2023-09-07T11:43:38;6.57;;;5.97;;
13566;SDS011;6855;48.112;11.298;2023-09-07T11:46:07;5.53;;;5.03;;
13566;SDS011;6855;48.112;11.298;2023-09-07T11:48:34;8.47;;;5.33;;
13566;SDS011;6855;48.112;11.298;2023-09-07T11:51:06;5.47;;;4.87;;
13566;SDS011;6855;48.112;11.298;2023-09-07T11:53:34;5.53;;;5.03;;
13566;SDS011;6855;48.112;11.298;2023-09-07T11:56:01;6.20;;;5.17;;
13566;SDS011;6855;48.112;11.298;2023-09-07T11:58:28;6.67;;;5.47;;
13566;SDS011;6855;48.112;11.298;2023-09-07T12:00:55;4.97;;;4.23;;
13566;SDS011;6855;48.112;11.298;2023-09-07T12:03:22;5.10;;;4.70;;
13566;SDS011;6855;48.112;11.298;2023-09-07T12:05:49;6.80;;;5.37;;
13566;SDS011;6855;48.112;11.298;2023-09-07T12:08:18;5.97;;;4.30;;
13566;SDS011;6855;48.112;11.298;2023-09-07T12:10:45;4.57;;;4.10;;
13566;SDS011;6855;48.112;11.298;2023-09-07T12:13:13;5.57;;;5.07;;
13566;SDS011;6855;48.112;11.298;2023-09-07T12:15:40;5.10;;;4.60;;
13566;SDS011;6855;48.112;11.298;2023-09-07T12:18:07;6.10;;;5.40;;
13566;SDS011;6855;48.112;11.298;2023-09-07T12:20:34;5.50;;;4.73;;
13566;SDS011;6855;48.112;11.298;2023-09-07T12:23:01;5.73;;;4.57;;
13566;SDS011;6855;48.112;11.298;2023-09-07T12:25:31;6.83;;;4.57;;
13566;SDS011;6855;48.112;11.298;2023-09-07T12:27:58;5.03;;;4.20;;
13566;SDS011;6855;48.112;11.298;2023-09-07T12:30:26;5.77;;;4.20;;
13566;SDS011;6855;48.112;11.298;2023-09-07T12:32:53;6.37;;;5.23;;
13566;SDS011;6855;48.112;11.298;2023-09-07T12:35:20;4.73;;;4.30;;
13566;SDS011;6855;48.112;11.298;2023-09-07T12:37:48;9.23;;;5.30;;
13566;SDS011;6855;48.112;11.298;2023-09-07T12:40:16;6.00;;;4.63;;
13566;SDS011;6855;48.112;11.298;2023-09-07T12:42:45;5.10;;;4.20;;
13566;SDS011;6855;48.112;11.298;2023-09-07T12:45:12;4.67;;;4.27;;
13566;SDS011;6855;48.112;11.298;2023-09-07T12:47:40;6.10;;;5.53;;
13566;SDS011;6855;48.112;11.298;2023-09-07T12:50:07;5.67;;;5.00;;
13566;SDS011;6855;48.112;11.298;2023-09-07T12:52:34;6.30;;;4.50;;
13566;SDS011;6855;48.112;11.298;2023-09-07T12:55:02;6.20;;;4.60;;
13566;SDS011;6855;48.112;11.298;2023-09-07T12:57:29;5.70;;;5.10;;
13566;SDS011;6855;48.112;11.298;2023-09-07T12:59:58;5.37;;;4.40;;
13566;SDS011;6855;48.112;11.298;2023-09-07T13:02:25;4.90;;;4.47;;
13566;SDS011;6855;48.112;11.298;2023-09-07T13:04:53;5.70;;;4.27;;
13566;SDS011;6855;48.112;11.298;2023-09-07T13:07:21;6.40;;;4.90;;
13566;SDS011;6855;48.112;11.298;2023-09-07T13:09:48;4.93;;;4.10;;
13566;SDS011;6855;48.112;11.298;2023-09-07T13:12:15;5.00;;;4.57;;
13566;SDS011;6855;48.112;11.298;2023-09-07T13:14:43;7.10;;;4.97;;
13566;SDS011;6855;48.112;11.298;2023-09-07T13:17:12;4.90;;;4.50;;
13566;SDS011;6855;48.112;11.298;2023-09-07T13:19:40;6.13;;;5.53;;
13566;SDS011;6855;48.112;11.298;2023-09-07T13:22:08;5.60;;;5.20;;
13566;SDS011;6855;48.112;11.298;2023-09-07T13:24:35;6.73;;;5.20;;
13566;SDS011;6855;48.112;11.298;2023-09-07T13:27:02;5.83;;;4.83;;
13566;SDS011;6855;48.112;11.298;2023-09-07T13:29:30;5.30;;;4.90;;
13566;SDS011;6855;48.112;11.298;2023-09-07T13:31:58;9.03;;;4.90;;
13566;SDS011;6855;48.112;11.298;2023-09-07T13:34:26;6.60;;;4.57;;
13566;SDS011;6855;48.112;11.298;2023-09-07T13:36:53;5.33;;;4.90;;
13566;SDS011;6855;48.112;11.298;2023-09-07T13:39:21;5.33;;;4.73;;
13566;SDS011;6855;48.112;11.298;2023-09-07T13:41:48;6.13;;;5.40;;
13566;SDS011;6855;48.112;11.298;2023-09-07T13:44:15;5.10;;;4.70;;
13566;SDS011;6855;48.112;11.298;2023-09-07T13:46:43;5.87;;;5.10;;
13566;SDS011;6855;48.112;11.298;2023-09-07T13:49:10;5.10;;;4.70;;
13566;SDS011;6855;48.112;11.298;2023-09-07T13:51:39;5.03;;;4.63;;
13566;SDS011;6855;48.112;11.298;2023-09-07T13:54:06;5.60;;;5.10;;
13566;SDS011;6855;48.112;11.298;2023-09-07T13:56:34;5.33;;;4.70;;
13566;SDS011;6855;48.112;11.298;2023-09-07T13:59:02;5.90;;;5.40;;
13566;SDS011;6855;48.112;11.298;2023-09-07T14:01:29;6.03;;;5.50;;
13566;SDS011;6855;48.112;11.298;2023-09-07T14:03:56;5.03;;;4.47;;
13566;SDS011;6855;48.112;11.298;2023-09-07T14:06:24;4.60;;;4.20;;
13566;SDS011;6855;48.112;11.298;2023-09-07T14:08:52;4.73;;;4.33;;
13566;SDS011;6855;48.112;11.298;2023-09-07T14:11:19;4.93;;;4.53;;
13566;SDS011;6855;48.112;11.298;2023-09-07T14:13:47;4.67;;;4.30;;
13566;SDS011;6855;48.112;11.298;2023-09-07T14:16:16;4.83;;;4.30;;
13566;SDS011;6855;48.112;11.298;2023-09-07T14:18:44;5.30;;;4.83;;
13566;SDS011;6855;48.112;11.298;2023-09-07T14:21:12;6.23;;;4.93;;
13566;SDS011;6855;48.112;11.298;2023-09-07T14:23:39;5.77;;;4.73;;
13566;SDS011;6855;48.112;11.298;2023-09-07T14:26:09;7.90;;;5.20;;
13566;SDS011;6855;48.112;11.298;2023-09-07T14:28:36;5.20;;;4.80;;
13566;SDS011;6855;48.112;11.298;2023-09-07T14:31:04;7.13;;;4.60;;
13566;SDS011;6855;48.112;11.298;2023-09-07T14:33:32;4.40;;;3.80;;
13566;SDS011;6855;48.112;11.298;2023-09-07T14:36:03;5.43;;;4.37;;
13566;SDS011;6855;48.112;11.298;2023-09-07T14:38:31;8.80;;;5.10;;
13566;SDS011;6855;48.112;11.298;2023-09-07T14:40:59;5.33;;;4.67;;
13566;SDS011;6855;48.112;11.298;2023-09-07T14:43:31;5.10;;;4.60;;
13566;SDS011;6855;48.112;11.298;2023-09-07T14:46:01;7.87;;;4.37;;
13566;SDS011;6855;48.112;11.298;2023-09-07T14:48:31;4.80;;;4.40;;
13566;SDS011;6855;48.112;11.298;2023-09-07T14:51:01;5.53;;;4.63;;
13566;SDS011;6855;48.112;11.298;2023-09-07T14:53:28;5.20;;;4.37;;